createdAt,value
2023-02-15T00:04:53.770Z,0.72
2023-02-15T00:09:55.589Z,0.71
2023-02-15T00:14:57.031Z,0.67
2023-02-15T00:19:58.928Z,0.51
2023-02-15T00:25:00.281Z,0.4
2023-02-15T00:40:04.775Z,0.41
2023-02-15T00:45:06.669Z,0.37
2023-02-15T01:10:14.507Z,0.23
2023-02-15T01:25:19.520Z,0.28
2023-02-15T01:40:24.166Z,0.17
2023-02-15T01:45:26.183Z,0.15
2023-02-15T02:00:30.463Z,0.12
2023-02-15T02:05:31.943Z,0.14
2023-02-15T02:10:33.523Z,-0.01
2023-02-15T02:15:35.486Z,-0.18
2023-02-15T02:20:37.160Z,-0.1
2023-02-15T02:25:38.661Z,-0.1
2023-02-15T02:30:40.241Z,-0.13
2023-02-15T02:35:41.665Z,-0.13
2023-02-15T02:40:43.635Z,-0.11
2023-02-15T02:45:45.273Z,-0.1
2023-02-15T02:50:46.841Z,-0.11
2023-02-15T02:55:48.556Z,-0.16
2023-02-15T03:00:50.482Z,-0.15
2023-02-15T03:05:52.520Z,-0.13
2023-02-15T03:10:54.187Z,-0.12
2023-02-15T03:15:56.102Z,-0.13
2023-02-15T03:20:57.368Z,-0.21
2023-02-15T03:25:58.643Z,-0.2
2023-02-15T03:31:00.584Z,-0.23
2023-02-15T03:36:02.223Z,-0.22
2023-02-15T03:41:03.492Z,-0.23
2023-02-15T03:46:05.427Z,-0.24
2023-02-15T03:51:06.649Z,-0.23
2023-02-15T03:56:08.103Z,-0.39
2023-02-15T04:01:09.954Z,-0.38
2023-02-15T04:06:11.239Z,-0.39
2023-02-15T04:11:12.528Z,-0.49
2023-02-15T04:16:14.418Z,-0.56
2023-02-15T04:21:16.258Z,-0.64
2023-02-15T04:26:18.297Z,-0.64
2023-02-15T04:31:20.056Z,-0.62
2023-02-15T04:36:21.901Z,-0.58
2023-02-15T04:41:24.062Z,-0.56
2023-02-15T04:46:25.719Z,-0.55
2023-02-15T04:51:27.746Z,-0.52
2023-02-15T04:56:29.854Z,-0.49
2023-02-15T05:01:40.502Z,-0.5
2023-02-15T05:06:33.206Z,-0.52
2023-02-15T05:11:34.576Z,-0.5
2023-02-15T05:16:43.178Z,-0.46
2023-02-15T05:21:44.395Z,-0.47
2023-02-15T05:26:45.824Z,-0.52
2023-02-15T05:31:48.173Z,-0.58
2023-02-15T05:36:49.284Z,-0.62
2023-02-15T05:41:51.062Z,-0.73
2023-02-15T05:46:52.339Z,-0.85
2023-02-15T05:51:53.982Z,-0.85
2023-02-15T05:56:55.366Z,-0.81
2023-02-15T06:01:56.984Z,-0.77
2023-02-15T06:06:58.598Z,-0.73
2023-02-15T06:12:00.446Z,-0.91
2023-02-15T06:17:02.223Z,-0.98
2023-02-15T06:22:04.226Z,-0.92
2023-02-15T06:27:06.010Z,-0.89
2023-02-15T06:32:07.558Z,-0.95
2023-02-15T06:37:08.849Z,-0.98
2023-02-15T06:42:10.868Z,-0.94
2023-02-15T06:47:12.864Z,-0.89
2023-02-15T06:52:14.410Z,-1
2023-02-15T06:57:15.925Z,-0.94
2023-02-15T07:02:17.467Z,-0.88
2023-02-15T07:07:19.238Z,-0.81
2023-02-15T07:12:20.567Z,-0.89
2023-02-15T07:17:35.677Z,-0.8
2023-02-15T07:22:23.749Z,-0.76
2023-02-15T07:27:25.744Z,-0.71
2023-02-15T07:32:27.158Z,-0.62
2023-02-15T07:37:28.687Z,-0.56
2023-02-15T07:42:30.620Z,-0.73
2023-02-15T07:47:32.516Z,-0.86
2023-02-15T07:52:33.912Z,-0.78
2023-02-15T07:57:35.920Z,-0.71
2023-02-15T08:02:37.867Z,-0.62
2023-02-15T08:07:39.563Z,-0.51
2023-02-15T08:12:41.212Z,-0.47
2023-02-15T08:17:42.740Z,-0.37
2023-02-15T08:22:44.826Z,-0.27
2023-02-15T08:27:46.282Z,-0.23
2023-02-15T08:32:47.514Z,-0.1
2023-02-15T08:37:49.646Z,-0.06
2023-02-15T08:42:51.160Z,0
2023-02-15T08:47:53.130Z,-0.01
2023-02-15T08:52:55.295Z,0.04
2023-02-15T08:57:56.974Z,-0.06
2023-02-15T09:02:58.211Z,0.01
2023-02-15T09:08:00.347Z,0.04
2023-02-15T09:13:02.043Z,0.05
2023-02-15T09:18:03.772Z,0.14
2023-02-15T09:23:05.856Z,0.26
2023-02-15T09:28:07.672Z,0.41
2023-02-15T09:33:09.731Z,0.49
2023-02-15T09:38:11.301Z,0.39
2023-02-15T09:43:12.777Z,0.46
2023-02-15T09:48:14.387Z,0.55
2023-02-15T09:53:15.930Z,0.75
2023-02-15T09:58:17.258Z,0.78
2023-02-15T10:03:18.793Z,0.91
2023-02-15T10:08:20.931Z,1.02
2023-02-15T10:13:22.587Z,1.09
2023-02-15T10:18:24.796Z,1.15
2023-02-15T10:23:26.602Z,1.3
2023-02-15T10:28:28.294Z,1.4
2023-02-15T10:33:29.683Z,1.6
2023-02-15T10:38:30.966Z,1.73
2023-02-15T10:43:33.072Z,1.9
2023-02-15T10:48:34.830Z,2.15
2023-02-15T10:53:36.276Z,2.44
2023-02-15T10:58:37.908Z,2.67
2023-02-15T11:03:39.379Z,2.92
2023-02-15T11:08:40.961Z,3.11
2023-02-15T11:13:42.425Z,3.4
2023-02-15T11:18:44.217Z,3.64
2023-02-15T11:23:46.224Z,3.92
2023-02-15T11:28:47.962Z,4.14
2023-02-15T11:33:49.660Z,4.41
2023-02-15T11:38:51.150Z,4.63
2023-02-15T11:43:52.678Z,4.84
2023-02-15T11:48:54.854Z,5.05
2023-02-15T11:53:56.268Z,5.24
2023-02-15T11:58:58.209Z,5.5
2023-02-15T12:03:59.861Z,5.65
2023-02-15T12:09:01.728Z,5.86
2023-02-15T12:14:03.270Z,6.06
2023-02-15T12:19:05.198Z,6.31
2023-02-15T12:24:07.291Z,6.53
2023-02-15T12:29:09.274Z,6.77
2023-02-15T12:34:10.650Z,7.03
2023-02-15T12:39:12.303Z,7.26
2023-02-15T12:44:14.523Z,7.49
2023-02-15T12:49:24.976Z,7.75
2023-02-15T12:54:23.223Z,8.06
2023-02-15T12:59:23.065Z,8.47
2023-02-15T13:04:21.323Z,9.04
2023-02-15T13:09:22.560Z,9.5
2023-02-15T13:14:23.729Z,9.93
2023-02-15T13:19:25.005Z,10.46
2023-02-15T13:24:27.279Z,11.07
2023-02-15T13:29:29.118Z,11.62
2023-02-15T13:34:31.182Z,12.4
2023-02-15T13:39:33.228Z,13.12
2023-02-15T13:44:35.182Z,13.56
2023-02-15T13:49:36.993Z,14.18
2023-02-15T13:54:38.234Z,14.82
2023-02-15T13:59:39.391Z,15.43
2023-02-15T14:04:41.121Z,16.03
2023-02-15T14:09:42.486Z,16.39
2023-02-15T14:14:44.468Z,16.7
2023-02-15T14:19:46.509Z,16.67
2023-02-15T14:24:48.264Z,16.65
2023-02-15T14:29:50.456Z,16.43
2023-02-15T14:34:51.679Z,16.24
2023-02-15T14:39:53.616Z,16.06
2023-02-15T14:44:55.387Z,15.99
2023-02-15T14:49:56.655Z,15.49
2023-02-15T14:54:58.703Z,15.44
2023-02-15T15:00:00.854Z,15.17
2023-02-15T15:15:04.503Z,14.16
2023-02-15T15:40:12.652Z,10.52
2023-02-15T15:45:14.023Z,9.95
2023-02-15T15:50:16.215Z,9.51
2023-02-15T15:55:18.174Z,8.93
2023-02-15T16:05:21.405Z,8.08
2023-02-15T16:15:25.120Z,7.09
2023-02-15T16:20:26.707Z,6.71
2023-02-15T16:40:33.901Z,5.06
2023-02-15T16:45:36.056Z,4.85
2023-02-15T16:50:37.981Z,4.65
2023-02-15T16:55:40.005Z,4.36
2023-02-15T17:00:41.686Z,4.17
2023-02-15T17:05:43.118Z,3.97
2023-02-15T17:10:45.156Z,3.72
2023-02-15T17:15:46.788Z,3.57
2023-02-15T17:20:48.001Z,3.38
2023-02-15T17:25:49.931Z,3.17
2023-02-15T17:30:51.464Z,2.93
2023-02-15T17:35:53.227Z,2.83
2023-02-15T17:40:55.396Z,2.72
2023-02-15T17:45:57.383Z,2.58
2023-02-15T17:50:58.892Z,2.39
2023-02-15T17:56:01.108Z,2.32
2023-02-15T18:01:02.969Z,2.22
2023-02-15T18:06:03.967Z,2.16
2023-02-15T18:11:05.426Z,2.08
2023-02-15T18:16:06.734Z,2.06
2023-02-15T18:21:10.111Z,2.01
2023-02-15T18:26:10.856Z,1.97
2023-02-15T18:31:12.345Z,1.9
2023-02-15T18:36:13.851Z,1.8
2023-02-15T18:41:15.455Z,1.75
2023-02-15T18:46:16.899Z,1.73
2023-02-15T18:51:18.387Z,1.68
2023-02-15T18:56:20.630Z,1.62
2023-02-15T19:01:22.389Z,1.59
2023-02-15T19:06:24.482Z,1.49
2023-02-15T19:11:27.898Z,1.47
2023-02-15T19:16:27.184Z,1.38
2023-02-15T19:21:29.283Z,1.27
2023-02-15T19:26:44.285Z,1.01
2023-02-15T19:31:34.944Z,0.81
2023-02-15T19:36:33.733Z,0.63
2023-02-15T19:41:34.997Z,0.58
2023-02-15T19:46:36.866Z,0.57
2023-02-15T19:51:38.147Z,0.55
2023-02-15T19:56:39.812Z,0.5
2023-02-15T20:01:41.174Z,0.47
2023-02-15T20:06:42.901Z,0.43
2023-02-15T20:11:44.456Z,0.31
2023-02-15T20:16:46.451Z,0.25
2023-02-15T20:21:48.071Z,0.22
2023-02-15T20:26:49.920Z,0.1
2023-02-15T20:31:53.439Z,0.02
2023-02-15T20:36:52.417Z,0.03
2023-02-15T20:41:54.635Z,0.02
2023-02-15T20:46:56.392Z,-0.13
2023-02-15T20:51:58.140Z,-0.17
2023-02-15T20:56:59.776Z,-0.2
2023-02-15T21:02:01.661Z,-0.2
2023-02-15T21:07:03.324Z,-0.22
2023-02-15T21:12:05.421Z,-0.22
2023-02-15T21:17:07.292Z,-0.28
2023-02-15T21:22:09.016Z,-0.27
2023-02-15T21:27:10.613Z,-0.28
2023-02-15T21:32:12.321Z,-0.3
2023-02-15T21:37:13.879Z,-0.42
2023-02-15T21:42:15.671Z,-0.56
2023-02-15T21:47:16.905Z,-0.74
2023-02-15T21:52:18.666Z,-0.7
2023-02-15T21:57:22.199Z,-0.7
2023-02-15T21:57:26.664Z,-0.7
2023-02-15T22:02:28.072Z,-0.74
2023-02-15T22:07:29.969Z,-0.72
2023-02-15T22:12:31.594Z,-0.73
2023-02-15T22:17:33.142Z,-0.75
2023-02-15T22:22:35.178Z,-0.86
2023-02-15T22:27:36.963Z,-0.9
2023-02-15T22:32:39.031Z,-0.96
2023-02-15T22:37:40.715Z,-1.03
2023-02-15T22:42:42.163Z,-1.11
2023-02-15T22:47:44.051Z,-1.09
2023-02-15T22:52:45.824Z,-1.08
2023-02-15T22:57:48.004Z,-1.08
2023-02-15T23:12:52.472Z,-1.21
2023-02-15T23:17:54.584Z,-1.25
2023-02-15T23:22:56.068Z,-1.26
2023-02-15T23:27:57.529Z,-1.36
2023-02-15T23:32:59.391Z,-1.36
2023-02-15T23:38:01.122Z,-1.41
2023-02-15T23:43:02.910Z,-1.4
2023-02-15T23:48:04.253Z,-1.44
2023-02-15T23:53:14.521Z,-1.42
2023-02-15T23:58:07.421Z,-1.37
